Time;durP1;ratioP1;P1;durP2;ratioP2;P2;SDS_P1;SDS_P2;PMS_P1;PMS_P2;Temp;Humidity;BMP_temperature;BMP_pressure;BME280_temperature;BME280_humidity;BME280_pressure;Samples;Min_cycle;Max_cycle;Signal;HPM_P1;HPM_P2
2023/10/24 00:01:14;;;;;;;9.85;5.10;;;10.60;99.90;;;;;;5015870;28;20270;-65
2023/10/24 00:03:41;;;;;;;10.57;5.43;;;10.60;99.90;;;;;;5031304;28;20049;-66
2023/10/24 00:06:08;;;;;;;17.95;5.85;;;10.50;99.90;;;;;;5011301;28;20053;-67
2023/10/24 00:08:35;;;;;;;14.30;6.43;;;10.50;99.90;;;;;;5030668;28;20068;-66
2023/10/24 00:11:03;;;;;;;11.23;5.97;;;10.40;99.90;;;;;;5027914;28;20096;-66
2023/10/24 00:13:29;;;;;;;14.82;6.72;;;10.40;99.90;;;;;;5028095;28;20248;-66
2023/10/24 00:15:57;;;;;;;16.17;7.32;;;10.30;99.90;;;;;;5024771;28;20053;-67
2023/10/24 00:18:27;;;;;;;13.10;6.80;;;10.40;99.90;;;;;;5013699;28;20046;-66
2023/10/24 00:20:54;;;;;;;19.08;7.75;;;10.30;99.90;;;;;;5004961;28;20041;-67
2023/10/24 00:23:20;;;;;;;19.13;7.15;;;10.30;99.90;;;;;;5027625;28;20080;-66
2023/10/24 00:25:47;;;;;;;13.23;7.00;;;10.20;99.90;;;;;;5027883;28;20401;-66
2023/10/24 00:28:14;;;;;;;13.07;7.30;;;10.30;99.90;;;;;;5028780;28;20053;-66
2023/10/24 00:30:41;;;;;;;24.58;7.07;;;10.30;99.90;;;;;;5028592;28;20056;-66
2023/10/24 00:33:08;;;;;;;19.38;6.88;;;10.30;99.90;;;;;;5011767;28;20081;-66
2023/10/24 00:35:35;;;;;;;15.48;8.05;;;10.20;99.90;;;;;;5028461;28;20037;-66
2023/10/24 00:38:01;;;;;;;14.23;7.03;;;10.20;99.90;;;;;;5015230;28;20050;-66
2023/10/24 00:40:28;;;;;;;20.08;8.88;;;10.20;99.90;;;;;;5016829;28;20042;-65
2023/10/24 00:43:01;;;;;;;12.55;6.05;;;10.20;99.90;;;;;;5026596;28;20477;-65
2023/10/24 00:45:28;;;;;;;14.20;6.93;;;10.20;99.90;;;;;;5010203;28;20107;-65
2023/10/24 00:47:55;;;;;;;10.05;5.95;;;10.10;99.90;;;;;;5026952;28;20689;-65
2023/10/24 00:50:22;;;;;;;14.55;6.65;;;10.10;99.90;;;;;;5008996;28;20446;-65
2023/10/24 00:52:48;;;;;;;12.05;6.05;;;10.10;99.90;;;;;;5027268;28;20099;-65
2023/10/24 00:55:16;;;;;;;17.67;6.28;;;10.10;99.90;;;;;;5026883;28;20057;-66
2023/10/24 00:57:43;;;;;;;10.02;5.82;;;10.10;99.90;;;;;;5026513;28;20045;-65
2023/10/24 01:00:10;;;;;;;13.82;6.03;;;10.00;99.90;;;;;;5010194;28;20053;-65
2023/10/24 01:02:37;;;;;;;13.75;5.90;;;10.00;99.90;;;;;;5013225;28;20046;-65
2023/10/24 01:05:04;;;;;;;14.80;6.05;;;10.00;99.90;;;;;;5031002;28;20516;-64
2023/10/24 01:07:32;;;;;;;13.93;5.80;;;10.00;99.90;;;;;;5012025;28;20052;-65
2023/10/24 01:09:59;;;;;;;12.82;4.85;;;10.00;99.90;;;;;;5013302;28;20057;-66
2023/10/24 01:12:26;;;;;;;12.70;5.85;;;10.00;99.90;;;;;;5030598;28;20085;-66
2023/10/24 01:14:53;;;;;;;9.27;4.88;;;10.00;99.90;;;;;;5030628;28;20053;-66
2023/10/24 01:17:20;;;;;;;10.05;4.53;;;10.00;99.90;;;;;;5030744;28;20057;-65
2023/10/24 01:19:46;;;;;;;13.63;6.15;;;10.00;99.90;;;;;;5030683;28;20084;-65
2023/10/24 01:22:13;;;;;;;11.27;5.20;;;10.00;99.90;;;;;;5030181;28;20452;-65
2023/10/24 01:24:41;;;;;;;10.93;5.43;;;10.00;99.90;;;;;;5030243;28;20053;-64
2023/10/24 01:27:08;;;;;;;12.10;5.32;;;10.00;99.90;;;;;;4663794;28;9999824;-64
2023/10/24 01:29:35;;;;;;;9.85;4.97;;;10.00;99.90;;;;;;4669769;28;10000196;-64
2023/10/24 01:32:02;;;;;;;12.68;5.38;;;10.00;99.90;;;;;;5016923;28;20037;-67
2023/10/24 01:34:29;;;;;;;9.90;5.80;;;10.00;99.90;;;;;;5030551;28;20049;-65
2023/10/24 01:36:56;;;;;;;8.30;4.32;;;10.10;99.90;;;;;;5026527;28;20491;-64
2023/10/24 01:39:23;;;;;;;9.65;4.72;;;10.00;99.90;;;;;;5027896;28;20050;-64
2023/10/24 01:41:50;;;;;;;12.05;4.93;;;10.10;99.90;;;;;;5030299;28;20061;-64
2023/10/24 01:44:17;;;;;;;8.40;5.53;;;10.10;99.90;;;;;;5029890;28;20284;-65
2023/10/24 01:46:44;;;;;;;9.00;4.57;;;10.10;99.90;;;;;;5030230;28;20041;-66
2023/10/24 01:49:11;;;;;;;7.75;4.38;;;10.20;99.90;;;;;;5029567;28;20550;-64
2023/10/24 01:51:38;;;;;;;8.35;4.45;;;10.10;99.90;;;;;;4995834;28;20053;-65
2023/10/24 01:54:05;;;;;;;9.10;4.90;;;10.10;99.90;;;;;;5029724;28;20065;-64
2023/10/24 01:56:32;;;;;;;7.18;4.38;;;10.10;99.90;;;;;;5030922;28;20545;-65
2023/10/24 01:58:58;;;;;;;8.45;4.72;;;10.20;99.90;;;;;;5028565;28;20052;-65
2023/10/24 02:01:25;;;;;;;14.55;5.97;;;10.20;99.90;;;;;;5025807;28;20540;-65
2023/10/24 02:03:55;;;;;;;10.57;5.10;;;10.20;99.90;;;;;;5029365;28;20242;-64
2023/10/24 02:06:22;;;;;;;11.77;5.68;;;10.20;99.90;;;;;;5027332;28;20067;-65
2023/10/24 02:08:49;;;;;;;10.45;5.32;;;10.20;99.90;;;;;;5026483;28;20512;-65
2023/10/24 02:11:16;;;;;;;14.43;6.28;;;10.30;99.90;;;;;;5028124;28;20123;-65
2023/10/24 02:13:43;;;;;;;16.23;7.60;;;10.30;99.90;;;;;;5029638;28;20049;-65
2023/10/24 02:16:10;;;;;;;21.95;10.95;;;10.40;99.90;;;;;;5029353;28;20053;-65
2023/10/24 02:18:37;;;;;;;20.42;10.15;;;10.30;99.90;;;;;;5029262;28;20142;-65
2023/10/24 02:21:07;;;;;;;17.27;8.50;;;10.30;99.90;;;;;;5029271;28;20597;-66
2023/10/24 02:23:39;;;;;;;18.30;8.52;;;10.30;99.90;;;;;;5029250;28;20103;-66
2023/10/24 02:26:13;;;;;;;16.85;8.15;;;10.40;99.90;;;;;;5029297;28;20088;-65
2023/10/24 02:28:41;;;;;;;30.73;9.65;;;10.40;99.90;;;;;;5029348;28;20049;-66
2023/10/24 02:31:08;;;;;;;23.02;10.00;;;10.40;99.90;;;;;;5028781;28;20045;-65
2023/10/24 02:33:34;;;;;;;18.50;9.77;;;10.40;99.90;;;;;;5028966;28;20424;-66
2023/10/24 02:36:08;;;;;;;17.88;9.40;;;10.40;99.90;;;;;;5027535;28;20091;-65
2023/10/24 02:38:35;;;;;;;26.92;10.55;;;10.50;99.90;;;;;;5029144;28;20088;-66
2023/10/24 02:41:06;;;;;;;24.05;9.75;;;10.50;99.90;;;;;;5031532;28;20069;-66
2023/10/24 02:43:33;;;;;;;22.73;10.95;;;10.50;99.90;;;;;;5030340;28;20038;-66
2023/10/24 02:46:03;;;;;;;30.38;11.82;;;10.50;99.90;;;;;;5031367;28;20053;-65
2023/10/24 02:48:30;;;;;;;24.92;11.35;;;10.50;99.90;;;;;;5029738;28;20061;-66
2023/10/24 02:50:56;;;;;;;34.70;11.95;;;10.50;99.90;;;;;;5028469;28;20096;-66
2023/10/24 02:53:24;;;;;;;28.02;11.75;;;10.60;99.90;;;;;;5028848;28;20451;-65
2023/10/24 02:55:51;;;;;;;31.98;12.05;;;10.50;99.90;;;;;;5027623;28;20048;-66
2023/10/24 02:58:18;;;;;;;25.90;12.60;;;10.60;99.90;;;;;;5020423;28;20042;-66
2023/10/24 03:00:45;;;;;;;27.92;11.75;;;10.60;99.90;;;;;;5027972;28;20211;-66
2023/10/24 03:03:12;;;;;;;21.92;11.45;;;10.60;99.90;;;;;;5028901;28;20045;-66
2023/10/24 03:05:39;;;;;;;26.73;11.02;;;10.60;99.90;;;;;;5027798;28;20117;-65
2023/10/24 03:08:06;;;;;;;28.00;10.30;;;10.60;99.90;;;;;;5028581;28;20049;-65
2023/10/24 03:10:40;;;;;;;31.00;12.07;;;10.60;99.90;;;;;;5026394;28;20053;-65
2023/10/24 03:13:07;;;;;;;22.30;10.75;;;10.60;99.90;;;;;;5010757;28;20216;-67
2023/10/24 03:15:34;;;;;;;29.33;12.02;;;10.60;99.90;;;;;;5027600;28;20103;-64
2023/10/24 03:18:01;;;;;;;23.35;10.85;;;10.60;99.90;;;;;;5028324;28;20042;-65
2023/10/24 03:20:28;;;;;;;24.23;11.60;;;10.60;99.90;;;;;;5028213;28;20141;-65
2023/10/24 03:22:55;;;;;;;25.17;11.20;;;10.60;99.90;;;;;;5027134;28;20048;-64
2023/10/24 03:25:23;;;;;;;25.20;11.30;;;10.70;99.90;;;;;;5027590;28;20053;-64
2023/10/24 03:27:54;;;;;;;23.20;11.45;;;10.70;99.90;;;;;;5028140;28;20452;-65
2023/10/24 03:30:21;;;;;;;21.10;10.05;;;10.60;99.90;;;;;;4686759;28;10000252;-65
2023/10/24 03:32:48;;;;;;;18.55;9.82;;;10.60;99.90;;;;;;5024687;28;20053;-65
2023/10/24 03:35:15;;;;;;;21.60;10.30;;;10.60;99.90;;;;;;5027038;28;20132;-65
2023/10/24 03:37:42;;;;;;;24.52;11.77;;;10.60;99.90;;;;;;5026479;28;20107;-65
2023/10/24 03:40:09;;;;;;;17.08;10.23;;;10.60;99.90;;;;;;5027190;28;20049;-64
2023/10/24 03:42:37;;;;;;;20.70;11.85;;;10.60;99.90;;;;;;5028089;28;20068;-64
2023/10/24 03:45:04;;;;;;;20.95;12.27;;;10.60;99.90;;;;;;5027751;28;20053;-65
2023/10/24 03:47:31;;;;;;;27.02;14.32;;;10.70;99.90;;;;;;5027995;28;20060;-64
2023/10/24 03:49:58;;;;;;;19.27;11.75;;;10.70;99.90;;;;;;5028045;28;20721;-65
2023/10/24 03:52:25;;;;;;;17.67;10.73;;;10.70;99.90;;;;;;5027682;28;20397;-64
2023/10/24 03:54:52;;;;;;;19.08;11.35;;;10.70;99.90;;;;;;5029134;28;20393;-64
2023/10/24 03:57:19;;;;;;;20.33;11.23;;;10.70;99.90;;;;;;5028173;28;20508;-64
2023/10/24 03:59:46;;;;;;;18.85;10.43;;;10.70;99.90;;;;;;5028328;28;20060;-66
2023/10/24 04:02:13;;;;;;;17.85;10.98;;;10.70;99.90;;;;;;5028134;28;20052;-64
2023/10/24 04:04:40;;;;;;;16.08;9.98;;;10.70;99.90;;;;;;5026464;28;20068;-65
2023/10/24 04:07:07;;;;;;;18.08;10.88;;;10.70;99.90;;;;;;5023861;28;20077;-64
2023/10/24 04:09:34;;;;;;;18.77;10.75;;;10.70;99.90;;;;;;5026880;28;20424;-64
2023/10/24 04:12:05;;;;;;;16.30;9.73;;;10.70;99.90;;;;;;5018049;28;20118;-64
2023/10/24 04:14:32;;;;;;;21.33;10.60;;;10.80;99.90;;;;;;5009910;28;20069;-64
2023/10/24 04:16:59;;;;;;;16.65;10.02;;;10.80;99.90;;;;;;5027401;28;20124;-65
2023/10/24 04:19:26;;;;;;;20.10;11.50;;;10.70;99.90;;;;;;5009957;28;20104;-65
2023/10/24 04:21:53;;;;;;;20.75;10.80;;;10.80;99.90;;;;;;5026786;28;20057;-65
2023/10/24 04:24:20;;;;;;;19.85;9.73;;;10.80;99.90;;;;;;5027296;28;20053;-65
2023/10/24 04:26:47;;;;;;;17.20;9.93;;;10.70;99.90;;;;;;5029081;28;20045;-65
2023/10/24 04:29:13;;;;;;;16.52;9.85;;;10.70;99.90;;;;;;5027616;28;20054;-65
2023/10/24 04:31:41;;;;;;;16.83;9.82;;;10.80;99.90;;;;;;5029296;28;20077;-66
2023/10/24 04:34:08;;;;;;;16.17;9.35;;;10.80;99.90;;;;;;5027387;28;20451;-66
2023/10/24 04:36:34;;;;;;;15.00;9.80;;;10.80;99.90;;;;;;5020566;28;20132;-65
2023/10/24 04:39:01;;;;;;;18.55;9.90;;;10.80;99.90;;;;;;4988611;28;21333;-66
2023/10/24 04:41:28;;;;;;;20.55;9.52;;;10.80;99.90;;;;;;5031724;28;20045;-67
2023/10/24 04:43:55;;;;;;;19.95;10.15;;;10.80;99.90;;;;;;5030720;28;20053;-66
2023/10/24 04:46:22;;;;;;;15.38;10.20;;;10.80;99.90;;;;;;5027438;28;20056;-66
2023/10/24 04:48:49;;;;;;;19.30;10.48;;;10.70;99.90;;;;;;5029390;28;20056;-66
2023/10/24 04:51:15;;;;;;;19.15;8.75;;;10.70;99.90;;;;;;5031251;28;20049;-65
2023/10/24 04:53:42;;;;;;;16.08;9.52;;;10.70;99.90;;;;;;5030662;28;20108;-66
2023/10/24 04:56:09;;;;;;;21.10;10.27;;;10.70;99.90;;;;;;5031313;28;20513;-66
2023/10/24 04:58:36;;;;;;;15.95;9.90;;;10.70;99.90;;;;;;5016937;28;20528;-66
2023/10/24 05:01:03;;;;;;;17.25;9.23;;;10.70;99.90;;;;;;5026041;28;20081;-65
2023/10/24 05:03:30;;;;;;;17.55;11.18;;;10.70;99.90;;;;;;5017597;28;20355;-66
2023/10/24 05:05:57;;;;;;;18.52;10.05;;;10.70;99.90;;;;;;5012653;28;20045;-67
2023/10/24 05:08:24;;;;;;;14.30;8.95;;;10.70;99.90;;;;;;5026475;28;20057;-67
2023/10/24 05:10:50;;;;;;;18.17;10.75;;;10.60;99.90;;;;;;5037264;28;20453;-65
2023/10/24 05:13:17;;;;;;;18.88;10.77;;;10.60;99.90;;;;;;5025316;28;20085;-66
2023/10/24 05:15:45;;;;;;;13.30;9.57;;;10.70;99.90;;;;;;5030778;28;20061;-65
2023/10/24 05:18:13;;;;;;;16.05;10.18;;;10.70;99.90;;;;;;5031350;28;20587;-66
2023/10/24 05:20:40;;;;;;;16.83;9.90;;;10.70;99.90;;;;;;5038183;28;20075;-65
2023/10/24 05:23:07;;;;;;;14.63;9.10;;;10.70;99.90;;;;;;5011935;28;20041;-66
2023/10/24 05:25:34;;;;;;;16.15;9.68;;;10.60;99.90;;;;;;5009984;28;20044;-67
2023/10/24 05:28:01;;;;;;;18.98;9.82;;;10.60;99.90;;;;;;5038959;28;20084;-66
2023/10/24 05:30:28;;;;;;;17.98;11.30;;;10.60;99.90;;;;;;5009385;28;20041;-67
2023/10/24 05:32:55;;;;;;;20.13;10.15;;;10.60;99.90;;;;;;5027652;28;20100;-66
2023/10/24 05:35:22;;;;;;;18.02;10.40;;;10.60;99.90;;;;;;5027238;28;20058;-65
2023/10/24 05:37:49;;;;;;;16.85;9.25;;;10.70;99.90;;;;;;5038317;28;20051;-65
2023/10/24 05:40:16;;;;;;;16.23;8.75;;;10.60;99.90;;;;;;5032546;28;20048;-66
2023/10/24 05:42:44;;;;;;;14.63;8.70;;;10.60;99.90;;;;;;5035055;28;20051;-66
2023/10/24 05:45:10;;;;;;;15.20;9.23;;;10.60;99.90;;;;;;5030599;28;20049;-66
2023/10/24 05:47:37;;;;;;;15.70;8.80;;;10.60;99.90;;;;;;5019436;28;20385;-65
2023/10/24 05:50:05;;;;;;;13.50;7.93;;;10.60;99.90;;;;;;5020239;28;20072;-66
2023/10/24 05:52:32;;;;;;;20.83;9.15;;;10.60;99.90;;;;;;5033963;28;20057;-66
2023/10/24 05:54:59;;;;;;;13.65;8.30;;;10.60;99.90;;;;;;5029682;28;20046;-66
2023/10/24 05:57:25;;;;;;;17.35;8.68;;;10.60;99.90;;;;;;5030750;28;20444;-65
2023/10/24 05:59:52;;;;;;;14.23;9.18;;;10.60;99.90;;;;;;5016670;28;20055;-66
2023/10/24 06:02:19;;;;;;;22.42;10.13;;;10.60;99.90;;;;;;5040889;28;20103;-65
2023/10/24 06:04:46;;;;;;;15.57;9.18;;;10.60;99.90;;;;;;5032528;28;20424;-66
2023/10/24 06:07:13;;;;;;;16.30;8.25;;;10.50;99.90;;;;;;5024862;28;20088;-65
2023/10/24 06:09:40;;;;;;;13.43;8.82;;;10.50;99.90;;;;;;5040064;28;20041;-65
2023/10/24 06:12:08;;;;;;;11.25;6.82;;;10.40;99.90;;;;;;5035916;28;20038;-65
2023/10/24 06:14:35;;;;;;;9.20;6.90;;;10.40;99.90;;;;;;5020560;28;20060;-65
2023/10/24 06:17:01;;;;;;;9.35;6.72;;;10.40;99.90;;;;;;5020106;28;20034;-65
2023/10/24 06:19:29;;;;;;;8.98;6.43;;;10.40;99.90;;;;;;5036389;28;20527;-65
2023/10/24 06:21:56;;;;;;;10.40;7.90;;;10.40;99.90;;;;;;5035484;28;20497;-66
2023/10/24 06:24:23;;;;;;;9.70;6.60;;;10.40;99.90;;;;;;5014846;28;20053;-66
2023/10/24 06:26:50;;;;;;;13.70;7.00;;;10.40;99.90;;;;;;5033497;28;20077;-65
2023/10/24 06:29:17;;;;;;;15.32;7.78;;;10.40;99.90;;;;;;5030822;28;20489;-65
2023/10/24 06:31:43;;;;;;;12.15;6.53;;;10.50;99.90;;;;;;5040027;28;20427;-66
2023/10/24 06:34:10;;;;;;;10.20;7.47;;;10.50;99.90;;;;;;5029176;28;20136;-66
2023/10/24 06:36:37;;;;;;;15.07;7.60;;;10.50;99.90;;;;;;5028887;28;20044;-66
2023/10/24 06:39:04;;;;;;;11.88;7.63;;;10.50;99.90;;;;;;5029407;28;20127;-65
2023/10/24 06:41:31;;;;;;;14.48;8.98;;;10.50;99.90;;;;;;5037431;28;20049;-65
2023/10/24 06:43:58;;;;;;;14.82;8.70;;;10.50;99.90;;;;;;5035986;28;20107;-66
2023/10/24 06:46:25;;;;;;;13.63;8.38;;;10.50;99.90;;;;;;5020552;28;20043;-65
2023/10/24 06:48:52;;;;;;;12.95;8.52;;;10.50;99.90;;;;;;5033201;28;20126;-65
2023/10/24 06:51:19;;;;;;;13.07;8.25;;;10.50;99.90;;;;;;5035186;28;20115;-66
2023/10/24 06:53:46;;;;;;;13.02;8.50;;;10.50;99.90;;;;;;5030728;28;20448;-65
2023/10/24 06:56:13;;;;;;;17.50;9.50;;;10.50;99.90;;;;;;5013793;28;20049;-65
2023/10/24 06:58:40;;;;;;;15.88;9.43;;;10.40;99.90;;;;;;5028290;28;20045;-65
2023/10/24 07:01:07;;;;;;;15.43;9.35;;;10.40;99.90;;;;;;5028740;28;20049;-65
2023/10/24 07:03:34;;;;;;;12.00;9.20;;;10.50;99.90;;;;;;5011413;28;20049;-65
2023/10/24 07:06:01;;;;;;;13.93;9.20;;;10.50;99.90;;;;;;5009711;28;20056;-65
2023/10/24 07:08:28;;;;;;;15.20;9.00;;;10.50;99.90;;;;;;5013730;28;20501;-68
2023/10/24 07:10:54;;;;;;;13.77;8.43;;;10.50;99.90;;;;;;5027612;28;20045;-65
2023/10/24 07:13:21;;;;;;;15.90;9.48;;;10.50;99.90;;;;;;5030780;28;20042;-64
2023/10/24 07:15:48;;;;;;;12.55;8.57;;;10.60;99.90;;;;;;5011318;28;20119;-64
2023/10/24 07:18:15;;;;;;;15.43;9.25;;;10.60;99.90;;;;;;5024661;28;20041;-64
2023/10/24 07:20:43;;;;;;;13.15;8.23;;;10.70;99.90;;;;;;5033288;28;20044;-65
2023/10/24 07:23:09;;;;;;;12.05;7.82;;;10.70;99.90;;;;;;5049328;28;20045;-67
2023/10/24 07:25:36;;;;;;;13.20;8.95;;;10.70;99.90;;;;;;5019714;28;20049;-65
2023/10/24 07:28:05;;;;;;;14.50;8.73;;;10.70;99.90;;;;;;5039879;28;20260;-64
2023/10/24 07:30:32;;;;;;;13.95;9.32;;;10.70;99.90;;;;;;5031194;28;20488;-65
2023/10/24 07:32:59;;;;;;;12.07;8.50;;;10.80;99.90;;;;;;5035966;28;20045;-65
2023/10/24 07:35:26;;;;;;;11.43;8.60;;;10.80;99.90;;;;;;5030701;28;20103;-65
2023/10/24 07:37:53;;;;;;;12.25;9.20;;;10.70;99.90;;;;;;5029529;28;20045;-66
2023/10/24 07:40:20;;;;;;;13.02;8.80;;;10.80;99.90;;;;;;5029218;28;20057;-64
2023/10/24 07:42:47;;;;;;;15.00;9.75;;;10.80;99.90;;;;;;5016551;28;20473;-67
2023/10/24 07:45:14;;;;;;;16.95;9.07;;;10.80;99.90;;;;;;5027291;28;20055;-64
2023/10/24 07:47:41;;;;;;;13.13;8.68;;;10.90;99.90;;;;;;5027620;28;20111;-64
2023/10/24 07:50:09;;;;;;;13.52;9.10;;;10.90;99.90;;;;;;5023539;28;20054;-65
2023/10/24 07:52:36;;;;;;;17.73;9.73;;;10.90;99.90;;;;;;5027754;28;20076;-64
2023/10/24 07:55:03;;;;;;;13.55;9.88;;;11.00;99.90;;;;;;5027571;28;20079;-65
2023/10/24 07:57:30;;;;;;;14.05;9.93;;;10.90;99.90;;;;;;5027795;28;20051;-65
2023/10/24 07:59:57;;;;;;;14.02;9.02;;;10.90;99.90;;;;;;5037892;28;20053;-64
2023/10/24 08:02:24;;;;;;;15.10;8.45;;;11.00;99.90;;;;;;5015219;28;20548;-64
2023/10/24 08:04:51;;;;;;;16.38;9.30;;;11.00;99.90;;;;;;5013888;28;20041;-65
2023/10/24 08:07:18;;;;;;;13.27;8.68;;;11.00;99.90;;;;;;5025618;28;20048;-66
2023/10/24 08:09:45;;;;;;;14.65;8.25;;;11.00;99.90;;;;;;5031079;28;20057;-64
2023/10/24 08:12:12;;;;;;;12.02;7.50;;;11.00;99.90;;;;;;5010236;28;20477;-65
2023/10/24 08:14:39;;;;;;;13.13;8.35;;;11.10;99.90;;;;;;5027100;28;20080;-64
2023/10/24 08:17:06;;;;;;;12.60;8.02;;;11.10;99.90;;;;;;5027307;28;20456;-64
2023/10/24 08:19:33;;;;;;;13.43;8.00;;;11.20;99.90;;;;;;5034530;28;20578;-65
2023/10/24 08:22:00;;;;;;;10.38;7.00;;;11.20;99.90;;;;;;5028821;28;20160;-65
2023/10/24 08:24:27;;;;;;;12.38;8.65;;;11.20;99.90;;;;;;5046625;28;20064;-65
2023/10/24 08:26:54;;;;;;;12.98;8.38;;;11.30;99.90;;;;;;5033331;28;20045;-64
2023/10/24 08:29:37;;;;;;;14.45;8.27;;;11.40;99.90;;;;;;5026455;28;20060;-64
2023/10/24 08:32:04;;;;;;;12.65;8.50;;;11.30;99.90;;;;;;5026879;28;20049;-65
2023/10/24 08:34:40;;;;;;;11.95;6.90;;;11.20;99.90;;;;;;5026734;28;20046;-65
2023/10/24 08:37:08;;;;;;;13.23;7.78;;;11.30;99.90;;;;;;5020263;28;20065;-65
2023/10/24 08:39:35;;;;;;;11.45;6.95;;;11.30;99.90;;;;;;5019560;28;20071;-65
2023/10/24 08:42:02;;;;;;;12.43;6.90;;;11.40;99.90;;;;;;5028187;28;20041;-66
2023/10/24 08:44:28;;;;;;;12.93;7.93;;;11.30;99.90;;;;;;5004720;28;20103;-66
2023/10/24 08:46:55;;;;;;;12.93;7.35;;;11.30;99.90;;;;;;5009608;28;20096;-66
2023/10/24 08:49:23;;;;;;;9.98;6.50;;;11.30;99.90;;;;;;5027594;28;20072;-66
2023/10/24 08:51:51;;;;;;;12.32;7.13;;;11.40;99.90;;;;;;5026642;28;20084;-65
2023/10/24 08:54:17;;;;;;;11.50;7.45;;;11.50;99.90;;;;;;5009958;28;20041;-65
2023/10/24 08:56:44;;;;;;;9.35;6.80;;;11.50;99.90;;;;;;5009391;28;20046;-65
2023/10/24 08:59:11;;;;;;;8.73;6.03;;;11.60;99.90;;;;;;5026758;28;20554;-66
2023/10/24 09:01:40;;;;;;;8.15;6.18;;;11.60;99.90;;;;;;5009323;28;20049;-65
2023/10/24 09:04:07;;;;;;;7.70;5.88;;;11.70;99.90;;;;;;5006981;28;20057;-65
2023/10/24 09:06:34;;;;;;;9.48;5.93;;;11.80;99.90;;;;;;5011423;28;20056;-65
2023/10/24 09:09:01;;;;;;;12.35;6.75;;;11.90;99.90;;;;;;5026941;28;20644;-65
2023/10/24 09:11:52;;;;;;;7.85;5.50;;;11.90;99.90;;;;;;5009274;28;20099;-65
2023/10/24 09:14:20;;;;;;;9.90;5.72;;;11.90;99.90;;;;;;5014079;28;20496;-65
2023/10/24 09:16:54;;;;;;;8.05;5.85;;;11.90;99.90;;;;;;5026292;28;20045;-65
2023/10/24 09:19:25;;;;;;;12.77;6.47;;;11.90;99.90;;;;;;5006878;28;20049;-65
2023/10/24 09:21:52;;;;;;;9.07;6.10;;;11.90;99.90;;;;;;5013045;28;20049;-65
2023/10/24 09:24:35;;;;;;;6.55;5.82;;;11.90;99.90;;;;;;5030729;28;20124;-65
2023/10/24 09:27:02;;;;;;;7.05;4.63;;;11.90;99.90;;;;;;5028137;28;20045;-64
2023/10/24 09:29:29;;;;;;;8.43;5.65;;;12.00;99.90;;;;;;5028305;28;20082;-65
2023/10/24 09:31:59;;;;;;;10.00;4.95;;;12.10;99.90;;;;;;5030705;28;20049;-65
2023/10/24 09:34:31;;;;;;;7.95;5.05;;;12.10;99.90;;;;;;5030217;28;20049;-67
2023/10/24 09:37:06;;;;;;;7.47;5.57;;;12.20;99.90;;;;;;5029606;28;20354;-65
2023/10/24 09:39:52;;;;;;;9.65;5.38;;;12.20;99.90;;;;;;5020414;28;20045;-66
2023/10/24 09:42:24;;;;;;;8.32;4.65;;;12.20;99.90;;;;;;5023461;28;20056;-65
2023/10/24 09:45:01;;;;;;;8.32;4.45;;;12.20;99.90;;;;;;5027907;28;20419;-66
2023/10/24 09:47:28;;;;;;;7.97;4.55;;;12.30;99.90;;;;;;5025600;28;20045;-67
2023/10/24 09:49:55;;;;;;;7.78;5.03;;;12.30;99.90;;;;;;5025914;28;20057;-66
2023/10/24 09:52:25;;;;;;;9.02;5.65;;;12.20;99.90;;;;;;5031587;28;20052;-66
2023/10/24 09:54:52;;;;;;;8.52;5.03;;;12.20;99.90;;;;;;5012057;28;20091;-66
2023/10/24 09:57:21;;;;;;;10.00;5.25;;;12.20;99.90;;;;;;5012047;28;20068;-66
2023/10/24 09:59:49;;;;;;;9.93;5.82;;;12.20;99.90;;;;;;5030199;28;20545;-66
2023/10/24 10:02:17;;;;;;;11.15;5.95;;;12.20;99.90;;;;;;5029967;28;20045;-66
2023/10/24 10:04:44;;;;;;;5.95;4.22;;;12.20;99.90;;;;;;5029481;28;20049;-66
2023/10/24 10:07:12;;;;;;;14.10;4.78;;;12.10;99.90;;;;;;5008274;28;20049;-65
2023/10/24 10:09:42;;;;;;;7.05;4.35;;;12.10;99.90;;;;;;5014978;28;20057;-66
2023/10/24 10:12:17;;;;;;;10.68;6.75;;;12.00;99.90;;;;;;5014324;28;20489;-66
2023/10/24 10:14:50;;;;;;;11.57;4.75;;;12.20;99.90;;;;;;5029492;28;20037;-66
2023/10/24 10:17:50;;;;;;;5.50;3.53;;;12.20;99.90;;;;;;5012057;28;20415;-66
2023/10/24 10:20:37;;;;;;;6.82;3.78;;;12.10;99.90;;;;;;5013052;28;20050;-66
2023/10/24 10:23:19;;;;;;;9.82;4.45;;;12.20;99.90;;;;;;5016981;28;20073;-66
2023/10/24 10:25:51;;;;;;;7.35;2.70;;;12.40;99.90;;;;;;5029219;28;20488;-65
2023/10/24 10:28:35;;;;;;;5.32;2.67;;;12.50;99.90;;;;;;4986069;28;20072;-65
2023/10/24 10:31:38;;;;;;;7.03;2.53;;;12.40;99.90;;;;;;5029145;28;20379;-65
2023/10/24 10:34:36;;;;;;;3.97;2.50;;;12.50;99.90;;;;;;4964751;28;20054;-66
2023/10/24 10:37:05;;;;;;;7.93;2.22;;;12.40;99.90;;;;;;5027756;28;20080;-65
2023/10/24 10:39:32;;;;;;;7.72;2.92;;;12.40;99.90;;;;;;5032160;28;20050;-67
2023/10/24 10:41:59;;;;;;;8.00;3.35;;;12.40;99.90;;;;;;5031977;28;20050;-67
2023/10/24 10:44:38;;;;;;;5.05;2.45;;;12.40;99.90;;;;;;5022789;28;20114;-66
2023/10/24 10:47:11;;;;;;;3.35;2.42;;;12.40;99.90;;;;;;5012769;28;20065;-65
2023/10/24 10:49:42;;;;;;;5.55;2.55;;;12.40;99.90;;;;;;5011899;28;20049;-65
2023/10/24 10:52:18;;;;;;;5.78;2.78;;;12.30;99.90;;;;;;5028573;28;20312;-67
2023/10/24 10:54:53;;;;;;;9.57;2.45;;;12.50;99.90;;;;;;5011305;28;20049;-66
2023/10/24 10:57:25;;;;;;;9.35;2.45;;;12.60;99.90;;;;;;5028837;28;20045;-66
2023/10/24 11:00:04;;;;;;;8.33;2.10;;;12.70;99.90;;;;;;5011409;28;20056;-65
2023/10/24 11:02:53;;;;;;;6.90;1.60;;;12.80;99.90;;;;;;5011316;28;20052;-67
2023/10/24 11:05:35;;;;;;;10.52;3.00;;;12.80;99.90;;;;;;5015566;28;20539;-64
2023/10/24 11:08:02;;;;;;;7.80;2.33;;;12.80;99.90;;;;;;5020229;28;20046;-66
2023/10/24 11:10:57;;;;;;;6.35;1.73;;;12.90;99.90;;;;;;5010217;28;20137;-66
2023/10/24 11:13:34;;;;;;;;;;;12.90;99.90;;;;;;5002232;28;20133;-65
2023/10/24 11:16:02;;;;;;;7.00;3.05;;;12.90;99.90;;;;;;5027355;28;19928;-66
2023/10/24 11:18:32;;;;;;;6.55;2.53;;;13.00;99.90;;;;;;5011150;28;20128;-67
2023/10/24 11:21:00;;;;;;;4.22;2.22;;;13.00;99.90;;;;;;5028319;28;20451;-66
2023/10/24 11:23:27;;;;;;;11.13;2.38;;;13.10;99.90;;;;;;5013264;28;20420;-66
2023/10/24 11:25:55;;;;;;;7.18;1.90;;;13.10;99.90;;;;;;5024389;28;20115;-66
2023/10/24 11:28:22;;;;;;;3.90;1.73;;;13.20;99.90;;;;;;5027984;28;20049;-65
2023/10/24 11:30:48;;;;;;;5.00;1.77;;;13.30;99.90;;;;;;5010485;28;20119;-67
2023/10/24 11:33:17;;;;;;;8.30;1.88;;;13.40;99.90;;;;;;5028290;28;20057;-65
2023/10/24 11:35:44;;;;;;;5.63;1.83;;;13.40;99.90;;;;;;5010481;28;20496;-65
2023/10/24 11:38:11;;;;;;;6.32;1.90;;;13.50;99.90;;;;;;5010558;28;20187;-65
2023/10/24 11:40:38;;;;;;;8.38;2.10;;;13.60;99.90;;;;;;5012160;28;20047;-65
2023/10/24 11:43:05;;;;;;;6.10;1.65;;;13.70;99.90;;;;;;5014797;28;20049;-64
2023/10/24 11:45:33;;;;;;;6.45;2.05;;;13.80;99.90;;;;;;5014169;28;20493;-65
2023/10/24 11:48:00;;;;;;;5.00;1.20;;;13.80;99.90;;;;;;5016623;28;20504;-65
2023/10/24 11:50:43;;;;;;;6.68;1.63;;;13.70;99.90;;;;;;5010237;28;20091;-65
2023/10/24 11:53:22;;;;;;;8.50;1.42;;;13.70;99.90;;;;;;5027747;28;20511;-65
2023/10/24 11:55:49;;;;;;;4.07;1.17;;;13.60;99.90;;;;;;5022234;28;20049;-66
2023/10/24 11:58:16;;;;;;;7.20;1.40;;;13.70;99.90;;;;;;5027881;28;20099;-65
2023/10/24 12:00:43;;;;;;;4.07;1.05;;;13.70;99.90;;;;;;5027740;28;20049;-66
2023/10/24 12:03:10;;;;;;;7.35;2.47;;;13.70;99.90;;;;;;5029847;28;20530;-65
2023/10/24 12:05:38;;;;;;;9.05;2.30;;;13.60;99.90;;;;;;5024358;28;20049;-66
2023/10/24 12:08:05;;;;;;;5.90;2.13;;;13.70;99.90;;;;;;5027517;28;20140;-65
2023/10/24 12:10:33;;;;;;;6.07;1.80;;;13.80;99.90;;;;;;5014504;28;20169;-66
2023/10/24 12:13:01;;;;;;;9.10;1.88;;;13.80;99.90;;;;;;5009111;28;20120;-66
2023/10/24 12:15:28;;;;;;;7.05;1.48;;;13.90;99.90;;;;;;5013862;28;20061;-66
2023/10/24 12:17:57;;;;;;;6.85;1.30;;;13.90;99.90;;;;;;5010062;28;20049;-67
2023/10/24 12:20:24;;;;;;;5.68;1.27;;;14.00;99.90;;;;;;5027124;28;20041;-66
2023/10/24 12:22:50;;;;;;;11.90;1.30;;;14.00;99.90;;;;;;5027496;28;20057;-66
2023/10/24 12:25:17;;;;;;;6.22;1.40;;;14.10;99.90;;;;;;5026850;28;20157;-66
2023/10/24 12:27:45;;;;;;;7.13;1.30;;;14.10;99.90;;;;;;5027014;28;20496;-67
2023/10/24 12:30:15;;;;;;;6.85;2.10;;;14.10;99.90;;;;;;5027036;28;20552;-66
2023/10/24 12:32:42;;;;;;;3.00;0.93;;;14.00;99.90;;;;;;5026761;28;20046;-66
2023/10/24 12:35:09;;;;;;;4.22;1.00;;;14.00;99.90;;;;;;5024399;28;20638;-66
2023/10/24 12:37:36;;;;;;;7.70;2.15;;;14.00;99.90;;;;;;5026246;28;20092;-67
2023/10/24 12:40:06;;;;;;;5.35;2.08;;;14.00;99.90;;;;;;5018646;28;20038;-65
2023/10/24 12:42:33;;;;;;;5.00;1.42;;;14.00;99.90;;;;;;5027326;28;20057;-65
2023/10/24 12:45:00;;;;;;;7.75;1.38;;;14.10;99.90;;;;;;5013762;28;20443;-66